sensor_id;sensor_type;location;lat;lon;timestamp;pressure;altitude;pressure_sealevel;temperature
66180;BMP280;52986;44.028;20.466;2023-05-19T00:00:42;98584.78;;;13.00
66180;BMP280;52986;44.028;20.466;2023-05-19T00:03:09;98585.69;;;12.97
66180;BMP280;52986;44.028;20.466;2023-05-19T00:05:36;98589.88;;;12.98
66180;BMP280;52986;44.028;20.466;2023-05-19T00:08:10;98580.91;;;13.01
66180;BMP280;52986;44.028;20.466;2023-05-19T00:10:37;98578.16;;;12.92
66180;BMP280;52986;44.028;20.466;2023-05-19T00:13:03;98576.97;;;12.93
66180;BMP280;52986;44.028;20.466;2023-05-19T00:15:28;98573.22;;;12.90
66180;BMP280;52986;44.028;20.466;2023-05-19T00:17:54;98565.00;;;12.85
66180;BMP280;52986;44.028;20.466;2023-05-19T00:20:20;98571.53;;;12.83
66180;BMP280;52986;44.028;20.466;2023-05-19T00:22:46;98567.97;;;12.87
66180;BMP280;52986;44.028;20.466;2023-05-19T00:25:11;98566.91;;;12.84
66180;BMP280;52986;44.028;20.466;2023-05-19T00:27:37;98568.84;;;12.83
66180;BMP280;52986;44.028;20.466;2023-05-19T00:30:02;98561.03;;;12.76
66180;BMP280;52986;44.028;20.466;2023-05-19T00:32:28;98564.91;;;12.75
66180;BMP280;52986;44.028;20.466;2023-05-19T00:34:53;98562.09;;;12.79
66180;BMP280;52986;44.028;20.466;2023-05-19T00:37:19;98565.53;;;12.79
66180;BMP280;52986;44.028;20.466;2023-05-19T00:39:44;98569.72;;;12.80
66180;BMP280;52986;44.028;20.466;2023-05-19T00:42:10;98567.34;;;12.82
66180;BMP280;52986;44.028;20.466;2023-05-19T00:44:39;98563.78;;;12.86
66180;BMP280;52986;44.028;20.466;2023-05-19T00:47:06;98566.47;;;12.86
66180;BMP280;52986;44.028;20.466;2023-05-19T00:49:31;98568.09;;;12.83
66180;BMP280;52986;44.028;20.466;2023-05-19T00:51:56;98571.84;;;12.86
66180;BMP280;52986;44.028;20.466;2023-05-19T00:54:23;98577.22;;;12.86
66180;BMP280;52986;44.028;20.466;2023-05-19T00:56:48;98576.59;;;12.81
66180;BMP280;52986;44.028;20.466;2023-05-19T00:59:14;98574.34;;;12.80
66180;BMP280;52986;44.028;20.466;2023-05-19T01:01:40;98580.16;;;12.78
66180;BMP280;52986;44.028;20.466;2023-05-19T01:04:05;98580.47;;;12.80
66180;BMP280;52986;44.028;20.466;2023-05-19T01:06:35;98581.13;;;12.85
66180;BMP280;52986;44.028;20.466;2023-05-19T01:09:03;98576.03;;;12.87
66180;BMP280;52986;44.028;20.466;2023-05-19T01:11:28;98564.09;;;12.88
66180;BMP280;52986;44.028;20.466;2023-05-19T01:13:54;98569.66;;;12.93
66180;BMP280;52986;44.028;20.466;2023-05-19T01:16:24;98554.28;;;12.94
66180;BMP280;52986;44.028;20.466;2023-05-19T01:29:41;98543.50;;;12.72
66180;BMP280;52986;44.028;20.466;2023-05-19T01:32:08;98535.84;;;12.61
66180;BMP280;52986;44.028;20.466;2023-05-19T01:34:38;98536.09;;;12.54
66180;BMP280;52986;44.028;20.466;2023-05-19T01:37:04;98537.16;;;12.57
66180;BMP280;52986;44.028;20.466;2023-05-19T01:39:29;98540.13;;;12.59
66180;BMP280;52986;44.028;20.466;2023-05-19T01:41:57;98548.75;;;12.53
66180;BMP280;52986;44.028;20.466;2023-05-19T01:44:22;98539.09;;;12.56
66180;BMP280;52986;44.028;20.466;2023-05-19T01:46:48;98548.53;;;12.61
66180;BMP280;52986;44.028;20.466;2023-05-19T01:49:14;98552.72;;;12.62
66180;BMP280;52986;44.028;20.466;2023-05-19T01:51:40;98550.03;;;12.62
66180;BMP280;52986;44.028;20.466;2023-05-19T01:54:05;98545.97;;;12.57
66180;BMP280;52986;44.028;20.466;2023-05-19T01:56:52;98541.22;;;12.61
66180;BMP280;52986;44.028;20.466;2023-05-19T02:02:25;98536.66;;;12.71
66180;BMP280;52986;44.028;20.466;2023-05-19T02:05:12;98533.09;;;12.74
66180;BMP280;52986;44.028;20.466;2023-05-19T02:07:51;98534.41;;;12.69
66180;BMP280;52986;44.028;20.466;2023-05-19T02:10:26;98533.84;;;12.74
66180;BMP280;52986;44.028;20.466;2023-05-19T02:12:58;98533.97;;;12.71
66180;BMP280;52986;44.028;20.466;2023-05-19T02:15:27;98534.78;;;12.80
66180;BMP280;52986;44.028;20.466;2023-05-19T02:17:54;98529.53;;;12.77
66180;BMP280;52986;44.028;20.466;2023-05-19T02:20:22;98529.69;;;12.82
66180;BMP280;52986;44.028;20.466;2023-05-19T02:22:47;98529.84;;;12.79
66180;BMP280;52986;44.028;20.466;2023-05-19T02:25:13;98530.91;;;12.81
66180;BMP280;52986;44.028;20.466;2023-05-19T02:27:38;98526.09;;;12.76
66180;BMP280;52986;44.028;20.466;2023-05-19T02:30:05;98520.97;;;12.69
66180;BMP280;52986;44.028;20.466;2023-05-19T02:32:31;98518.97;;;12.61
66180;BMP280;52986;44.028;20.466;2023-05-19T02:34:57;98515.94;;;12.59
66180;BMP280;52986;44.028;20.466;2023-05-19T02:37:22;98527.16;;;12.57
66180;BMP280;52986;44.028;20.466;2023-05-19T02:39:49;98518.59;;;12.49
66180;BMP280;52986;44.028;20.466;2023-05-19T02:42:15;98527.09;;;12.48
66180;BMP280;52986;44.028;20.466;2023-05-19T02:44:42;98526.31;;;12.47
66180;BMP280;52986;44.028;20.466;2023-05-19T02:47:08;98530.38;;;12.52
66180;BMP280;52986;44.028;20.466;2023-05-19T02:49:33;98527.88;;;12.58
66180;BMP280;52986;44.028;20.466;2023-05-19T02:52:03;98525.94;;;12.58
66180;BMP280;52986;44.028;20.466;2023-05-19T02:54:29;98528.19;;;12.60
66180;BMP280;52986;44.028;20.466;2023-05-19T02:56:55;98519.63;;;12.52
66180;BMP280;52986;44.028;20.466;2023-05-19T02:59:21;98526.84;;;12.55
66180;BMP280;52986;44.028;20.466;2023-05-19T03:01:47;98529.84;;;12.57
66180;BMP280;52986;44.028;20.466;2023-05-19T03:04:12;98530.47;;;12.61
66180;BMP280;52986;44.028;20.466;2023-05-19T03:06:38;98530.66;;;12.67
66180;BMP280;52986;44.028;20.466;2023-05-19T03:09:04;98530.97;;;12.69
66180;BMP280;52986;44.028;20.466;2023-05-19T03:11:30;98528.59;;;12.71
66180;BMP280;52986;44.028;20.466;2023-05-19T03:13:56;98526.34;;;12.69
66180;BMP280;52986;44.028;20.466;2023-05-19T03:16:21;98529.97;;;12.75
66180;BMP280;52986;44.028;20.466;2023-05-19T03:18:46;98534.91;;;12.77
66180;BMP280;52986;44.028;20.466;2023-05-19T03:21:12;98537.59;;;12.77
66180;BMP280;52986;44.028;20.466;2023-05-19T03:23:37;98541.22;;;12.83
66180;BMP280;52986;44.028;20.466;2023-05-19T03:26:02;98539.88;;;12.88
66180;BMP280;52986;44.028;20.466;2023-05-19T03:28:28;98543.94;;;12.92
66180;BMP280;52986;44.028;20.466;2023-05-19T03:30:53;98541.88;;;12.96
66180;BMP280;52986;44.028;20.466;2023-05-19T03:33:19;98548.31;;;12.99
66180;BMP280;52986;44.028;20.466;2023-05-19T03:35:44;98546.50;;;12.96
66180;BMP280;52986;44.028;20.466;2023-05-19T03:38:10;98540.72;;;12.97
66180;BMP280;52986;44.028;20.466;2023-05-19T03:40:35;98552.94;;;12.98
66180;BMP280;52986;44.028;20.466;2023-05-19T03:43:01;98559.22;;;12.95
66180;BMP280;52986;44.028;20.466;2023-05-19T03:45:26;98549.94;;;12.96
66180;BMP280;52986;44.028;20.466;2023-05-19T03:47:52;98554.16;;;12.97
66180;BMP280;52986;44.028;20.466;2023-05-19T03:50:17;98558.19;;;13.02
66180;BMP280;52986;44.028;20.466;2023-05-19T03:52:43;98548.97;;;13.03
66180;BMP280;52986;44.028;20.466;2023-05-19T03:55:10;98562.41;;;13.03
66180;BMP280;52986;44.028;20.466;2023-05-19T03:57:36;98553.59;;;13.02
66180;BMP280;52986;44.028;20.466;2023-05-19T04:00:03;98552.25;;;13.07
66180;BMP280;52986;44.028;20.466;2023-05-19T04:02:30;98551.41;;;13.10
66180;BMP280;52986;44.028;20.466;2023-05-19T04:04:55;98555.47;;;13.14
66180;BMP280;52986;44.028;20.466;2023-05-19T04:07:21;98546.78;;;13.20
66180;BMP280;52986;44.028;20.466;2023-05-19T04:09:47;98555.03;;;13.25
66180;BMP280;52986;44.028;20.466;2023-05-19T04:12:12;98558.22;;;13.33
66180;BMP280;52986;44.028;20.466;2023-05-19T04:14:38;98563.47;;;13.36
66180;BMP280;52986;44.028;20.466;2023-05-19T04:17:03;98565.59;;;13.41
66180;BMP280;52986;44.028;20.466;2023-05-19T04:19:29;98568.59;;;13.43
66180;BMP280;52986;44.028;20.466;2023-05-19T04:21:54;98564.22;;;13.37
66180;BMP280;52986;44.028;20.466;2023-05-19T04:24:21;98569.91;;;13.39
66180;BMP280;52986;44.028;20.466;2023-05-19T04:26:46;98571.56;;;13.36
66180;BMP280;52986;44.028;20.466;2023-05-19T04:29:11;98569.59;;;13.37
66180;BMP280;52986;44.028;20.466;2023-05-19T04:31:39;98570.66;;;13.39
66180;BMP280;52986;44.028;20.466;2023-05-19T04:34:05;98559.63;;;13.46
66180;BMP280;52986;44.028;20.466;2023-05-19T04:36:32;98559.97;;;13.58
66180;BMP280;52986;44.028;20.466;2023-05-19T04:38:58;98563.56;;;13.64
66180;BMP280;52986;44.028;20.466;2023-05-19T04:41:26;98568.41;;;13.69
66180;BMP280;52986;44.028;20.466;2023-05-19T04:43:52;98574.34;;;13.64
66180;BMP280;52986;44.028;20.466;2023-05-19T04:46:17;98574.34;;;13.64
66180;BMP280;52986;44.028;20.466;2023-05-19T04:48:49;98572.41;;;13.64
66180;BMP280;52986;44.028;20.466;2023-05-19T04:51:15;98575.53;;;13.63
66180;BMP280;52986;44.028;20.466;2023-05-19T04:53:42;98570.72;;;13.58
66180;BMP280;52986;44.028;20.466;2023-05-19T04:56:08;98573.47;;;13.67
66180;BMP280;52986;44.028;20.466;2023-05-19T04:58:34;98576.63;;;13.74
66180;BMP280;52986;44.028;20.466;2023-05-19T05:00:59;98582.16;;;13.80
66180;BMP280;52986;44.028;20.466;2023-05-19T05:03:24;98585.19;;;13.82
66180;BMP280;52986;44.028;20.466;2023-05-19T05:05:50;98595.22;;;13.82
66180;BMP280;52986;44.028;20.466;2023-05-19T05:08:16;98593.69;;;13.80
66180;BMP280;52986;44.028;20.466;2023-05-19T05:10:50;98596.38;;;13.80
66180;BMP280;52986;44.028;20.466;2023-05-19T05:13:22;98597.91;;;13.82
66180;BMP280;52986;44.028;20.466;2023-05-19T05:15:48;98597.59;;;13.79
66180;BMP280;52986;44.028;20.466;2023-05-19T05:18:14;98606.41;;;13.80
66180;BMP280;52986;44.028;20.466;2023-05-19T05:20:43;98615.09;;;13.84
66180;BMP280;52986;44.028;20.466;2023-05-19T05:23:09;98606.16;;;13.87
66180;BMP280;52986;44.028;20.466;2023-05-19T05:25:39;98615.75;;;13.88
66180;BMP280;52986;44.028;20.466;2023-05-19T05:28:08;98616.16;;;13.87
66180;BMP280;52986;44.028;20.466;2023-05-19T05:30:34;98616.03;;;13.81
66180;BMP280;52986;44.028;20.466;2023-05-19T05:33:00;98617.34;;;13.86
66180;BMP280;52986;44.028;20.466;2023-05-19T05:35:26;98624.09;;;13.90
66180;BMP280;52986;44.028;20.466;2023-05-19T05:37:51;98626.34;;;13.92
66180;BMP280;52986;44.028;20.466;2023-05-19T05:40:17;98626.22;;;13.95
66180;BMP280;52986;44.028;20.466;2023-05-19T05:42:43;98627.88;;;14.02
66180;BMP280;52986;44.028;20.466;2023-05-19T05:45:08;98637.91;;;14.10
66180;BMP280;52986;44.028;20.466;2023-05-19T05:47:34;98635.84;;;14.15
66180;BMP280;52986;44.028;20.466;2023-05-19T05:50:07;98637.34;;;14.16
66180;BMP280;52986;44.028;20.466;2023-05-19T05:52:35;98638.53;;;14.15
66180;BMP280;52986;44.028;20.466;2023-05-19T05:55:00;98637.78;;;14.14
66180;BMP280;52986;44.028;20.466;2023-05-19T05:57:26;98643.06;;;14.18
66180;BMP280;52986;44.028;20.466;2023-05-19T05:59:55;98648.44;;;14.18
66180;BMP280;52986;44.028;20.466;2023-05-19T06:02:20;98643.06;;;14.27
66180;BMP280;52986;44.028;20.466;2023-05-19T06:04:46;98646.94;;;14.26
66180;BMP280;52986;44.028;20.466;2023-05-19T06:07:11;98645.47;;;14.34
66180;BMP280;52986;44.028;20.466;2023-05-19T06:09:37;98651.75;;;14.40
66180;BMP280;52986;44.028;20.466;2023-05-19T06:12:02;98656.84;;;14.47
66180;BMP280;52986;44.028;20.466;2023-05-19T06:14:28;98659.28;;;14.54
66180;BMP280;52986;44.028;20.466;2023-05-19T06:16:53;98663.00;;;14.57
66180;BMP280;52986;44.028;20.466;2023-05-19T06:19:18;98658.66;;;14.59
66180;BMP280;52986;44.028;20.466;2023-05-19T06:21:44;98662.56;;;14.67
66180;BMP280;52986;44.028;20.466;2023-05-19T06:24:10;98658.56;;;14.72
66180;BMP280;52986;44.028;20.466;2023-05-19T06:26:35;98659.13;;;14.76
66180;BMP280;52986;44.028;20.466;2023-05-19T06:29:01;98655.09;;;14.81
66180;BMP280;52986;44.028;20.466;2023-05-19T06:31:27;98644.16;;;14.84
66180;BMP280;52986;44.028;20.466;2023-05-19T06:33:52;98651.50;;;15.02
66180;BMP280;52986;44.028;20.466;2023-05-19T06:36:18;98649.34;;;15.15
66180;BMP280;52986;44.028;20.466;2023-05-19T06:38:43;98640.63;;;15.29
66180;BMP280;52986;44.028;20.466;2023-05-19T06:41:09;98641.50;;;15.45
66180;BMP280;52986;44.028;20.466;2023-05-19T06:43:34;98652.59;;;15.47
66180;BMP280;52986;44.028;20.466;2023-05-19T06:45:59;98656.44;;;15.55
66180;BMP280;52986;44.028;20.466;2023-05-19T06:48:25;98662.72;;;15.61
66180;BMP280;52986;44.028;20.466;2023-05-19T06:50:50;98653.41;;;15.62
66180;BMP280;52986;44.028;20.466;2023-05-19T06:53:18;98658.66;;;15.65
66180;BMP280;52986;44.028;20.466;2023-05-19T06:55:44;98669.31;;;15.69
66180;BMP280;52986;44.028;20.466;2023-05-19T06:58:09;98667.97;;;15.64
66180;BMP280;52986;44.028;20.466;2023-05-19T07:00:34;98666.63;;;15.69
66180;BMP280;52986;44.028;20.466;2023-05-19T07:03:00;98674.06;;;15.74
66180;BMP280;52986;44.028;20.466;2023-05-19T07:05:26;98679.78;;;15.76
66180;BMP280;52986;44.028;20.466;2023-05-19T07:07:51;98680.06;;;15.78
66180;BMP280;52986;44.028;20.466;2023-05-19T07:10:17;98686.16;;;15.97
66180;BMP280;52986;44.028;20.466;2023-05-19T07:12:42;98689.69;;;16.03
66180;BMP280;52986;44.028;20.466;2023-05-19T07:15:09;98696.47;;;16.07
66180;BMP280;52986;44.028;20.466;2023-05-19T07:17:34;98688.97;;;16.02
66180;BMP280;52986;44.028;20.466;2023-05-19T07:20:00;98676.03;;;16.30
66180;BMP280;52986;44.028;20.466;2023-05-19T07:22:25;98683.19;;;16.57
66180;BMP280;52986;44.028;20.466;2023-05-19T07:24:51;98676.16;;;16.74
66180;BMP280;52986;44.028;20.466;2023-05-19T07:27:17;98677.03;;;16.95
66180;BMP280;52986;44.028;20.466;2023-05-19T07:29:42;98688.16;;;17.12
66180;BMP280;52986;44.028;20.466;2023-05-19T07:32:08;98679.41;;;17.32
66180;BMP280;52986;44.028;20.466;2023-05-19T07:34:33;98677.56;;;17.43
66180;BMP280;52986;44.028;20.466;2023-05-19T07:36:59;98677.59;;;17.78
66180;BMP280;52986;44.028;20.466;2023-05-19T07:39:24;98676.63;;;18.17
66180;BMP280;52986;44.028;20.466;2023-05-19T07:41:53;98664.50;;;18.58
66180;BMP280;52986;44.028;20.466;2023-05-19T07:44:20;98654.66;;;18.87
66180;BMP280;52986;44.028;20.466;2023-05-19T07:46:45;98664.50;;;19.10
66180;BMP280;52986;44.028;20.466;2023-05-19T07:49:11;98664.00;;;19.43
66180;BMP280;52986;44.028;20.466;2023-05-19T07:51:36;98668.66;;;20.44
66180;BMP280;52986;44.028;20.466;2023-05-19T07:54:01;98670.34;;;22.33
66180;BMP280;52986;44.028;20.466;2023-05-19T07:56:27;98650.66;;;23.30
66180;BMP280;52986;44.028;20.466;2023-05-19T07:58:52;98640.47;;;23.06
66180;BMP280;52986;44.028;20.466;2023-05-19T08:01:18;98635.00;;;23.06
66180;BMP280;52986;44.028;20.466;2023-05-19T08:03:43;98650.75;;;22.65
66180;BMP280;52986;44.028;20.466;2023-05-19T08:06:08;98659.50;;;22.11
66180;BMP280;52986;44.028;20.466;2023-05-19T08:08:34;98661.66;;;21.72
66180;BMP280;52986;44.028;20.466;2023-05-19T08:11:03;98661.97;;;21.57
66180;BMP280;52986;44.028;20.466;2023-05-19T08:13:29;98666.72;;;21.12
66180;BMP280;52986;44.028;20.466;2023-05-19T08:15:54;98661.09;;;20.82
66180;BMP280;52986;44.028;20.466;2023-05-19T08:18:26;98663.50;;;20.57
66180;BMP280;52986;44.028;20.466;2023-05-19T08:20:51;98665.94;;;20.39
66180;BMP280;52986;44.028;20.466;2023-05-19T08:23:17;98667.53;;;19.97
66180;BMP280;52986;44.028;20.466;2023-05-19T08:25:43;98667.75;;;19.88
66180;BMP280;52986;44.028;20.466;2023-05-19T08:28:09;98659.06;;;19.90
66180;BMP280;52986;44.028;20.466;2023-05-19T08:30:34;98660.25;;;20.37
66180;BMP280;52986;44.028;20.466;2023-05-19T08:32:59;98671.72;;;20.85
66180;BMP280;52986;44.028;20.466;2023-05-19T08:35:25;98666.94;;;21.58
66180;BMP280;52986;44.028;20.466;2023-05-19T08:37:50;98668.09;;;22.67
66180;BMP280;52986;44.028;20.466;2023-05-19T08:40:16;98658.44;;;23.45
66180;BMP280;52986;44.028;20.466;2023-05-19T08:42:45;98656.69;;;24.41
66180;BMP280;52986;44.028;20.466;2023-05-19T08:45:11;98658.50;;;26.17
66180;BMP280;52986;44.028;20.466;2023-05-19T08:47:36;98653.22;;;26.40
66180;BMP280;52986;44.028;20.466;2023-05-19T08:50:04;98646.84;;;25.57
66180;BMP280;52986;44.028;20.466;2023-05-19T08:57:58;98654.06;;;28.45
66180;BMP280;52986;44.028;20.466;2023-05-19T09:00:25;98665.88;;;31.07
66180;BMP280;52986;44.028;20.466;2023-05-19T09:02:50;98642.78;;;32.98
66180;BMP280;52986;44.028;20.466;2023-05-19T09:05:23;98640.91;;;32.81
66180;BMP280;52986;44.028;20.466;2023-05-19T09:07:48;98642.97;;;31.24
66180;BMP280;52986;44.028;20.466;2023-05-19T09:10:14;98677.88;;;31.80
66180;BMP280;52986;44.028;20.466;2023-05-19T09:12:45;98682.69;;;35.34
66180;BMP280;52986;44.028;20.466;2023-05-19T09:15:12;98671.75;;;36.70
66180;BMP280;52986;44.028;20.466;2023-05-19T09:17:40;98664.44;;;37.57
66180;BMP280;52986;44.028;20.466;2023-05-19T09:20:06;98656.72;;;38.57
66180;BMP280;52986;44.028;20.466;2023-05-19T09:22:40;98650.41;;;38.72
66180;BMP280;52986;44.028;20.466;2023-05-19T09:25:16;98647.47;;;38.38
66180;BMP280;52986;44.028;20.466;2023-05-19T09:27:41;98651.81;;;38.12
66180;BMP280;52986;44.028;20.466;2023-05-19T09:30:07;98654.38;;;38.22
66180;BMP280;52986;44.028;20.466;2023-05-19T09:32:34;98649.19;;;37.05
66180;BMP280;52986;44.028;20.466;2023-05-19T09:35:01;98623.44;;;36.05
66180;BMP280;52986;44.028;20.466;2023-05-19T09:37:27;98611.56;;;35.56
66180;BMP280;52986;44.028;20.466;2023-05-19T09:39:53;98609.50;;;32.79
66180;BMP280;52986;44.028;20.466;2023-05-19T09:42:27;98614.97;;;29.99
66180;BMP280;52986;44.028;20.466;2023-05-19T09:45:01;98615.28;;;28.13
66180;BMP280;52986;44.028;20.466;2023-05-19T09:47:27;98614.13;;;27.86
66180;BMP280;52986;44.028;20.466;2023-05-19T09:49:53;98636.59;;;28.35
66180;BMP280;52986;44.028;20.466;2023-05-19T09:52:19;98631.31;;;30.81
66180;BMP280;52986;44.028;20.466;2023-05-19T09:54:45;98613.56;;;30.50
66180;BMP280;52986;44.028;20.466;2023-05-19T09:57:11;98612.81;;;29.90
66180;BMP280;52986;44.028;20.466;2023-05-19T09:59:37;98595.94;;;32.45
66180;BMP280;52986;44.028;20.466;2023-05-19T10:02:03;98618.56;;;33.39
66180;BMP280;52986;44.028;20.466;2023-05-19T10:04:30;98600.75;;;33.63
66180;BMP280;52986;44.028;20.466;2023-05-19T10:06:57;98620.38;;;34.29
66180;BMP280;52986;44.028;20.466;2023-05-19T10:09:26;98611.28;;;35.52
66180;BMP280;52986;44.028;20.466;2023-05-19T10:11:53;98598.81;;;36.39
66180;BMP280;52986;44.028;20.466;2023-05-19T10:14:23;98603.91;;;36.81
66180;BMP280;52986;44.028;20.466;2023-05-19T10:16:53;98604.47;;;37.32
66180;BMP280;52986;44.028;20.466;2023-05-19T10:19:20;98574.09;;;37.97
66180;BMP280;52986;44.028;20.466;2023-05-19T10:21:47;98590.75;;;38.09
66180;BMP280;52986;44.028;20.466;2023-05-19T10:24:13;98600.16;;;38.76
66180;BMP280;52986;44.028;20.466;2023-05-19T10:26:43;98598.31;;;38.98
66180;BMP280;52986;44.028;20.466;2023-05-19T10:29:10;98592.25;;;38.41
66180;BMP280;52986;44.028;20.466;2023-05-19T10:31:37;98562.50;;;38.34
66180;BMP280;52986;44.028;20.466;2023-05-19T10:37:16;98583.75;;;35.70
66180;BMP280;52986;44.028;20.466;2023-05-19T10:39:49;98572.41;;;38.06
66180;BMP280;52986;44.028;20.466;2023-05-19T10:42:20;98577.81;;;38.46
66180;BMP280;52986;44.028;20.466;2023-05-19T10:44:59;98553.38;;;36.64
66180;BMP280;52986;44.028;20.466;2023-05-19T10:47:26;98570.94;;;36.27
66180;BMP280;52986;44.028;20.466;2023-05-19T10:49:52;98556.56;;;36.72
66180;BMP280;52986;44.028;20.466;2023-05-19T10:52:19;98555.47;;;34.48
66180;BMP280;52986;44.028;20.466;2023-05-19T10:54:51;98569.03;;;33.26
66180;BMP280;52986;44.028;20.466;2023-05-19T10:57:20;98559.34;;;33.67
66180;BMP280;52986;44.028;20.466;2023-05-19T10:59:49;98552.38;;;33.78
66180;BMP280;52986;44.028;20.466;2023-05-19T11:02:41;98564.19;;;33.36
66180;BMP280;52986;44.028;20.466;2023-05-19T11:05:13;98574.19;;;34.92
66180;BMP280;52986;44.028;20.466;2023-05-19T11:07:53;98561.09;;;36.01
66180;BMP280;52986;44.028;20.466;2023-05-19T11:10:22;98539.59;;;36.03
66180;BMP280;52986;44.028;20.466;2023-05-19T11:12:48;98540.78;;;34.03
66180;BMP280;52986;44.028;20.466;2023-05-19T11:15:14;98538.59;;;31.63
66180;BMP280;52986;44.028;20.466;2023-05-19T11:17:41;98544.16;;;30.38
66180;BMP280;52986;44.028;20.466;2023-05-19T11:20:08;98543.72;;;29.65
66180;BMP280;52986;44.028;20.466;2023-05-19T11:23:08;98529.25;;;29.57
66180;BMP280;52986;44.028;20.466;2023-05-19T11:25:48;98525.00;;;28.51
66180;BMP280;52986;44.028;20.466;2023-05-19T11:28:19;98521.97;;;27.94
66180;BMP280;52986;44.028;20.466;2023-05-19T11:30:47;98520.78;;;27.29
66180;BMP280;52986;44.028;20.466;2023-05-19T11:33:15;98521.06;;;27.03
66180;BMP280;52986;44.028;20.466;2023-05-19T11:35:49;98524.44;;;27.24
66180;BMP280;52986;44.028;20.466;2023-05-19T11:38:19;98526.69;;;27.56
66180;BMP280;52986;44.028;20.466;2023-05-19T11:40:45;98536.66;;;28.12
66180;BMP280;52986;44.028;20.466;2023-05-19T11:43:12;98521.72;;;28.38
66180;BMP280;52986;44.028;20.466;2023-05-19T11:45:37;98517.09;;;28.40
66180;BMP280;52986;44.028;20.466;2023-05-19T11:48:03;98519.31;;;28.34
66180;BMP280;52986;44.028;20.466;2023-05-19T11:50:32;98513.44;;;27.39
66180;BMP280;52986;44.028;20.466;2023-05-19T11:53:00;98508.25;;;27.05
66180;BMP280;52986;44.028;20.466;2023-05-19T11:55:26;98507.28;;;26.59
66180;BMP280;52986;44.028;20.466;2023-05-19T12:00:30;98493.03;;;27.12
66180;BMP280;52986;44.028;20.466;2023-05-19T12:03:01;98480.63;;;27.56
66180;BMP280;52986;44.028;20.466;2023-05-19T12:05:26;98484.50;;;27.68
66180;BMP280;52986;44.028;20.466;2023-05-19T12:07:53;98481.72;;;27.61
66180;BMP280;52986;44.028;20.466;2023-05-19T12:10:22;98480.75;;;27.20
66180;BMP280;52986;44.028;20.466;2023-05-19T12:12:49;98478.56;;;27.19
66180;BMP280;52986;44.028;20.466;2023-05-19T12:15:18;98464.56;;;27.02
66180;BMP280;52986;44.028;20.466;2023-05-19T12:17:47;98466.31;;;26.76
66180;BMP280;52986;44.028;20.466;2023-05-19T12:20:13;98470.25;;;25.96
66180;BMP280;52986;44.028;20.466;2023-05-19T12:22:39;98464.41;;;25.37
66180;BMP280;52986;44.028;20.466;2023-05-19T12:25:04;98467.63;;;25.49
66180;BMP280;52986;44.028;20.466;2023-05-19T12:27:34;98452.16;;;25.79
66180;BMP280;52986;44.028;20.466;2023-05-19T12:30:02;98453.91;;;25.69
66180;BMP280;52986;44.028;20.466;2023-05-19T12:32:28;98451.91;;;25.70
66180;BMP280;52986;44.028;20.466;2023-05-19T12:34:56;98459.34;;;25.62
66180;BMP280;52986;44.028;20.466;2023-05-19T12:37:25;98449.44;;;25.59
66180;BMP280;52986;44.028;20.466;2023-05-19T12:39:52;98447.22;;;25.36
66180;BMP280;52986;44.028;20.466;2023-05-19T12:42:17;98447.00;;;25.14
66180;BMP280;52986;44.028;20.466;2023-05-19T12:44:45;98446.03;;;25.11
66180;BMP280;52986;44.028;20.466;2023-05-19T12:47:12;98450.56;;;24.61
66180;BMP280;52986;44.028;20.466;2023-05-19T12:50:06;98443.25;;;23.98
66180;BMP280;52986;44.028;20.466;2023-05-19T12:52:44;98446.28;;;23.95
66180;BMP280;52986;44.028;20.466;2023-05-19T12:55:10;98442.69;;;23.86
66180;BMP280;52986;44.028;20.466;2023-05-19T12:57:41;98440.47;;;23.72
66180;BMP280;52986;44.028;20.466;2023-05-19T13:02:34;98438.13;;;24.21
66180;BMP280;52986;44.028;20.466;2023-05-19T13:05:01;98438.50;;;23.99
66180;BMP280;52986;44.028;20.466;2023-05-19T13:07:27;98433.41;;;23.89
66180;BMP280;52986;44.028;20.466;2023-05-19T13:09:52;98431.81;;;23.81
66180;BMP280;52986;44.028;20.466;2023-05-19T13:12:17;98428.97;;;23.73
66180;BMP280;52986;44.028;20.466;2023-05-19T13:14:44;98425.69;;;23.62
66180;BMP280;52986;44.028;20.466;2023-05-19T13:17:10;98429.50;;;23.72
66180;BMP280;52986;44.028;20.466;2023-05-19T13:19:35;98419.72;;;23.76
66180;BMP280;52986;44.028;20.466;2023-05-19T13:22:00;98419.50;;;23.74
66180;BMP280;52986;44.028;20.466;2023-05-19T13:24:26;98415.31;;;23.86
66180;BMP280;52986;44.028;20.466;2023-05-19T13:26:51;98420.69;;;23.92
66180;BMP280;52986;44.028;20.466;2023-05-19T13:29:17;98417.56;;;24.01
66180;BMP280;52986;44.028;20.466;2023-05-19T13:31:42;98427.34;;;23.97
66180;BMP280;52986;44.028;20.466;2023-05-19T13:34:08;98417.06;;;24.16
66180;BMP280;52986;44.028;20.466;2023-05-19T13:36:33;98428.22;;;24.18
66180;BMP280;52986;44.028;20.466;2023-05-19T13:38:59;98426.63;;;24.09
66180;BMP280;52986;44.028;20.466;2023-05-19T13:41:25;98424.00;;;24.43
66180;BMP280;52986;44.028;20.466;2023-05-19T13:43:51;98424.31;;;24.53
66180;BMP280;52986;44.028;20.466;2023-05-19T13:46:17;98423.47;;;24.45
66180;BMP280;52986;44.028;20.466;2023-05-19T13:48:42;98427.16;;;24.08
66180;BMP280;52986;44.028;20.466;2023-05-19T13:51:08;98425.53;;;23.86
66180;BMP280;52986;44.028;20.466;2023-05-19T13:53:33;98421.66;;;23.95
66180;BMP280;52986;44.028;20.466;2023-05-19T13:55:59;98420.72;;;24.18
66180;BMP280;52986;44.028;20.466;2023-05-19T13:58:25;98425.69;;;24.46
66180;BMP280;52986;44.028;20.466;2023-05-19T14:00:50;98417.03;;;24.55
66180;BMP280;52986;44.028;20.466;2023-05-19T14:03:19;98414.84;;;24.41
66180;BMP280;52986;44.028;20.466;2023-05-19T14:05:46;98411.59;;;24.16
66180;BMP280;52986;44.028;20.466;2023-05-19T14:08:12;98407.75;;;23.93
66180;BMP280;52986;44.028;20.466;2023-05-19T14:10:37;98405.06;;;23.61
66180;BMP280;52986;44.028;20.466;2023-05-19T14:13:03;98397.53;;;23.29
66180;BMP280;52986;44.028;20.466;2023-05-19T14:15:29;98401.81;;;23.11
66180;BMP280;52986;44.028;20.466;2023-05-19T14:17:54;98399.44;;;23.21
66180;BMP280;52986;44.028;20.466;2023-05-19T14:20:20;98394.34;;;23.44
66180;BMP280;52986;44.028;20.466;2023-05-19T14:22:46;98405.50;;;23.46